Terminal Aerodrome Forecast
Issued by NWS

Home | Current Version | Previous Version | Text Only | Print | Product List | Glossary On
Versions: 1 2 3 4 5 6 7 8 9 10 11 12 13 14 15 16 17 18 19 20 21
000
FTUS41 KPBZ 031730
TAFHLG
TAF
KHLG 031730Z 0318/0418 11009KT P6SM BKN040
      TEMPO 0318/0319 BKN025
     FM040800 11004KT P6SM BKN020
     FM041700 14006KT P6SM VCTS BKN040CB=

USA.gov is the U.S. government's official web portal to all federal, state and local government web resources and services.